createdAt,value
2018-12-09T00:00:41.994Z,7.97
2018-12-09T00:01:47.614Z,7.97
2018-12-09T00:02:54.226Z,7.82
2018-12-09T00:03:59.711Z,7.98
2018-12-09T00:05:04.665Z,7.75
2018-12-09T00:06:10.036Z,7.84
2018-12-09T00:07:15.660Z,7.87
2018-12-09T00:08:21.327Z,7.80
2018-12-09T00:09:26.557Z,7.81
2018-12-09T00:10:32.282Z,7.86
2018-12-09T00:11:37.929Z,7.88
2018-12-09T00:12:43.520Z,7.88
2018-12-09T00:13:49.131Z,7.90
2018-12-09T00:14:54.767Z,7.82
2018-12-09T00:16:00.405Z,7.87
2018-12-09T00:17:06.000Z,7.92
2018-12-09T00:18:11.593Z,7.91
2018-12-09T00:19:17.181Z,7.95
2018-12-09T00:20:22.782Z,8.01
2018-12-09T00:21:28.401Z,8.11
2018-12-09T00:22:34.011Z,8.15
2018-12-09T00:23:39.605Z,8.07
2018-12-09T00:24:45.200Z,8.08
2018-12-09T00:25:50.817Z,8.04
2018-12-09T00:26:56.439Z,8.14
2018-12-09T00:28:02.033Z,8.18
2018-12-09T00:29:07.834Z,8.26
2018-12-09T00:30:13.513Z,8.33
2018-12-09T00:31:19.161Z,8.28
2018-12-09T00:32:24.773Z,8.24
2018-12-09T00:33:30.407Z,8.33
2018-12-09T00:34:36.029Z,8.40
2018-12-09T00:35:41.628Z,8.27
2018-12-09T00:36:47.287Z,8.26
2018-12-09T00:37:52.941Z,8.31
2018-12-09T00:38:58.581Z,8.30
2018-12-09T00:40:03.429Z,8.30
2018-12-09T00:41:09.085Z,8.39
2018-12-09T00:42:14.702Z,8.36
2018-12-09T00:43:20.882Z,8.34
2018-12-09T00:44:27.049Z,8.43
2018-12-09T00:45:32.691Z,8.46
2018-12-09T00:46:38.330Z,8.46
2018-12-09T00:47:44.000Z,8.39
2018-12-09T00:48:49.273Z,8.48
2018-12-09T00:49:54.890Z,8.48
2018-12-09T00:51:00.516Z,8.57
2018-12-09T00:52:06.140Z,8.61
2018-12-09T00:53:11.412Z,8.61
2018-12-09T00:54:17.045Z,8.71
2018-12-09T00:55:22.643Z,8.74
2018-12-09T00:56:28.292Z,8.60
2018-12-09T00:57:33.916Z,8.63
2018-12-09T00:58:39.517Z,8.67
2018-12-09T00:59:45.191Z,8.76
2018-12-09T01:00:50.842Z,8.75
2018-12-09T01:01:56.480Z,8.83
2018-12-09T01:03:02.065Z,8.75
2018-12-09T01:04:07.668Z,8.73
2018-12-09T01:05:13.275Z,8.78
2018-12-09T01:06:18.880Z,8.86
2018-12-09T01:07:24.580Z,8.71
2018-12-09T01:08:30.210Z,8.80
2018-12-09T01:09:35.815Z,8.87
2018-12-09T01:10:41.396Z,8.77
2018-12-09T01:11:47.710Z,8.76
2018-12-09T01:12:53.793Z,8.90
2018-12-09T01:13:59.411Z,8.91
2018-12-09T01:15:04.336Z,8.96
2018-12-09T01:16:09.953Z,8.89
2018-12-09T01:17:15.591Z,8.84
2018-12-09T01:18:21.181Z,8.83
2018-12-09T01:19:26.768Z,8.80
2018-12-09T01:20:32.439Z,8.81
2018-12-09T01:21:38.103Z,8.87
2018-12-09T01:22:43.708Z,8.84
2018-12-09T01:23:49.427Z,8.91
2018-12-09T01:24:55.115Z,8.90
2018-12-09T01:26:00.406Z,8.89
2018-12-09T01:27:06.020Z,8.96
2018-12-09T01:28:11.628Z,9.04
2018-12-09T01:29:17.230Z,8.99
2018-12-09T01:30:22.853Z,9.03
2018-12-09T01:31:28.182Z,8.90
2018-12-09T01:32:33.841Z,8.87
2018-12-09T01:33:39.485Z,8.85
2018-12-09T01:34:45.083Z,8.85
2018-12-09T01:35:50.708Z,8.89
2018-12-09T01:36:56.340Z,8.89
2018-12-09T01:38:01.958Z,8.84
2018-12-09T01:39:07.350Z,8.92
2018-12-09T01:40:12.602Z,8.98
2018-12-09T01:41:18.212Z,8.97
2018-12-09T01:42:24.804Z,8.98
2018-12-09T01:43:30.401Z,8.87
2018-12-09T01:44:36.023Z,8.86
2018-12-09T01:45:41.623Z,8.73
2018-12-09T01:46:47.355Z,8.70
2018-12-09T01:47:53.008Z,8.63
2018-12-09T01:48:58.609Z,8.62
2018-12-09T01:50:03.505Z,8.51
2018-12-09T01:51:09.154Z,8.47
2018-12-09T01:52:14.804Z,8.45
2018-12-09T01:55:02.927Z,8.60
2018-12-09T01:56:08.528Z,8.64
2018-12-09T01:57:14.193Z,8.62
2018-12-09T01:58:19.851Z,8.57
2018-12-09T01:59:25.443Z,8.59
2018-12-09T02:00:31.101Z,8.54
2018-12-09T02:01:35.357Z,8.42
2018-12-09T02:02:39.977Z,8.37
2018-12-09T02:03:44.565Z,8.52
2018-12-09T02:04:49.149Z,8.53
2018-12-09T02:05:54.797Z,8.53
2018-12-09T02:07:01.360Z,8.41
2018-12-09T02:08:06.964Z,8.49
2018-12-09T02:09:12.589Z,8.48
2018-12-09T02:10:18.292Z,8.51
2018-12-09T02:11:23.907Z,8.50
2018-12-09T02:12:30.693Z,8.57
2018-12-09T02:13:36.321Z,8.58
2018-12-09T02:14:41.973Z,8.51
2018-12-09T02:15:47.683Z,8.57
2018-12-09T02:16:52.960Z,8.55
2018-12-09T02:17:58.584Z,8.58
2018-12-09T02:19:17.715Z,8.49
2018-12-09T02:20:23.334Z,8.39
2018-12-09T02:21:28.928Z,8.37
2018-12-09T02:22:34.560Z,8.26
2018-12-09T02:23:40.204Z,8.35
2018-12-09T02:24:45.887Z,8.50
2018-12-09T02:25:51.530Z,8.51
2018-12-09T02:26:57.168Z,8.35
2018-12-09T02:28:02.797Z,8.45
2018-12-09T02:29:08.445Z,8.43
2018-12-09T02:30:13.726Z,8.48
2018-12-09T02:31:19.381Z,8.56
2018-12-09T02:32:25.055Z,8.56
2018-12-09T02:33:30.301Z,8.61
2018-12-09T02:34:35.601Z,8.55
2018-12-09T02:35:49.063Z,8.42
2018-12-09T02:36:54.712Z,8.45
2018-12-09T02:38:00.316Z,8.35
2018-12-09T02:39:05.604Z,8.50
2018-12-09T02:40:11.201Z,8.40
2018-12-09T02:41:16.458Z,8.31
2018-12-09T02:42:22.240Z,8.28
2018-12-09T02:43:28.463Z,8.19
2018-12-09T02:44:34.122Z,8.28
2018-12-09T02:45:39.754Z,8.26
2018-12-09T02:46:45.432Z,8.25
2018-12-09T02:47:51.045Z,8.35
2018-12-09T02:48:56.660Z,8.30
2018-12-09T02:50:02.292Z,8.45
2018-12-09T02:51:07.172Z,8.53
2018-12-09T02:52:12.424Z,8.41
2018-12-09T02:53:17.452Z,8.45
2018-12-09T02:54:22.731Z,8.45
2018-12-09T02:55:29.064Z,8.62
2018-12-09T02:56:34.701Z,8.79
2018-12-09T02:57:40.365Z,8.69
2018-12-09T02:58:46.987Z,8.71
2018-12-09T02:59:52.625Z,8.65
2018-12-09T03:00:57.551Z,8.67
2018-12-09T03:02:03.241Z,8.70
2018-12-09T03:03:09.421Z,8.75
2018-12-09T03:04:15.957Z,8.64
2018-12-09T03:05:21.233Z,8.61
2018-12-09T03:06:26.845Z,8.62
2018-12-09T03:07:33.467Z,8.60
2018-12-09T03:08:39.093Z,8.55
2018-12-09T03:09:44.742Z,8.57
2018-12-09T03:10:50.441Z,8.65
2018-12-09T03:11:56.077Z,8.69
2018-12-09T03:13:01.744Z,8.62
2018-12-09T03:14:07.357Z,8.70
2018-12-09T03:15:13.020Z,8.77
2018-12-09T03:16:19.558Z,8.81
2018-12-09T03:17:25.160Z,8.83
2018-12-09T03:18:30.780Z,8.83
2018-12-09T03:19:36.402Z,8.84
2018-12-09T03:20:42.024Z,8.89
2018-12-09T03:21:47.665Z,8.90
2018-12-09T03:22:53.405Z,8.87
2018-12-09T03:23:59.016Z,8.76
2018-12-09T03:25:04.308Z,8.52
2018-12-09T03:26:09.945Z,8.46
2018-12-09T03:27:15.553Z,8.53
2018-12-09T03:28:22.064Z,8.43
2018-12-09T03:29:27.347Z,8.35
2018-12-09T03:30:32.983Z,8.33
2018-12-09T03:31:38.615Z,8.29
2018-12-09T03:32:45.513Z,8.21
2018-12-09T03:33:51.105Z,8.15
2018-12-09T03:34:56.501Z,8.18
2018-12-09T03:36:02.150Z,8.11
2018-12-09T03:37:07.799Z,8.14
2018-12-09T03:38:13.465Z,8.12
2018-12-09T03:39:19.292Z,8.02
2018-12-09T03:40:26.164Z,8.03
2018-12-09T03:41:31.640Z,8.02
2018-12-09T03:42:36.988Z,7.98
2018-12-09T03:43:44.342Z,7.97
2018-12-09T03:44:52.172Z,7.97
2018-12-09T03:45:57.869Z,7.94
2018-12-09T03:47:03.436Z,7.91
2018-12-09T03:48:08.715Z,7.94
2018-12-09T03:49:14.336Z,7.82
2018-12-09T03:50:21.995Z,7.76
2018-12-09T03:51:27.641Z,7.72
2018-12-09T03:52:33.272Z,7.71
2018-12-09T03:53:39.039Z,7.74
2018-12-09T03:54:44.692Z,7.75
2018-12-09T03:55:50.284Z,7.68
2018-12-09T03:56:57.361Z,7.68
2018-12-09T03:58:03.001Z,7.70
2018-12-09T03:59:08.648Z,7.71
2018-12-09T04:00:14.985Z,7.77
2018-12-09T04:01:20.693Z,7.81
2018-12-09T04:02:26.343Z,7.69
2018-12-09T04:03:32.008Z,7.77
2018-12-09T04:04:39.019Z,7.83
2018-12-09T04:05:45.432Z,7.78
2018-12-09T04:06:51.025Z,7.80
2018-12-09T04:07:56.739Z,7.68
2018-12-09T04:09:02.716Z,7.57
2018-12-09T04:10:08.431Z,7.49
2018-12-09T04:11:15.356Z,7.54
2018-12-09T04:12:21.486Z,7.63
2018-12-09T04:13:27.567Z,7.66
2018-12-09T04:14:33.224Z,7.59
2018-12-09T04:15:41.057Z,7.54
2018-12-09T04:16:46.486Z,7.66
2018-12-09T04:17:52.145Z,7.64
2018-12-09T04:18:57.816Z,7.69
2018-12-09T04:20:04.194Z,7.71
2018-12-09T04:21:09.810Z,7.71
2018-12-09T04:22:15.040Z,7.73
2018-12-09T04:23:22.288Z,7.78
2018-12-09T04:24:29.355Z,7.67
2018-12-09T04:25:36.733Z,7.72
2018-12-09T04:26:42.437Z,7.69
2018-12-09T04:27:48.354Z,7.62
2018-12-09T04:28:53.982Z,7.70
2018-12-09T04:29:59.660Z,7.58
2018-12-09T04:31:05.261Z,7.66
2018-12-09T04:32:12.075Z,7.73
2018-12-09T04:33:17.749Z,7.82
2018-12-09T04:34:23.366Z,7.80
2018-12-09T04:35:28.976Z,7.75
2018-12-09T04:36:35.509Z,7.70
2018-12-09T04:37:41.581Z,7.71
2018-12-09T04:38:47.609Z,7.75
2018-12-09T04:39:53.761Z,7.73
2018-12-09T04:41:00.711Z,7.83
2018-12-09T04:42:07.196Z,7.79
2018-12-09T04:43:13.755Z,7.82
2018-12-09T04:44:19.380Z,7.72
2018-12-09T04:45:26.337Z,7.76
2018-12-09T04:46:32.812Z,7.85
2018-12-09T04:47:38.473Z,7.89
2018-12-09T04:48:45.024Z,7.87
2018-12-09T04:49:50.662Z,7.86
2018-12-09T04:50:56.922Z,7.75
2018-12-09T04:52:02.555Z,7.78
2018-12-09T04:53:08.521Z,7.79
2018-12-09T04:54:14.140Z,7.70
2018-12-09T04:55:19.757Z,7.65
2018-12-09T04:56:26.256Z,7.65
2018-12-09T04:57:32.470Z,7.70
2018-12-09T04:58:38.138Z,7.74
2018-12-09T04:59:43.117Z,7.76
2018-12-09T05:00:53.348Z,7.78
2018-12-09T05:01:59.348Z,7.71
2018-12-09T05:03:05.267Z,7.75
2018-12-09T05:04:12.304Z,7.77
2018-12-09T05:05:18.490Z,7.82
2018-12-09T05:06:24.518Z,7.74
2018-12-09T05:07:31.045Z,7.81
2018-12-09T05:08:37.226Z,7.81
2018-12-09T05:09:44.812Z,7.80
2018-12-09T05:10:50.404Z,7.69
2018-12-09T05:11:56.907Z,7.73
2018-12-09T05:13:02.675Z,7.71
2018-12-09T05:14:08.881Z,7.60
2018-12-09T05:15:14.816Z,7.62
2018-12-09T05:16:20.465Z,7.62
2018-12-09T05:17:26.274Z,7.71
2018-12-09T05:18:31.936Z,7.80
2018-12-09T05:19:37.909Z,7.78
2018-12-09T05:20:43.495Z,7.70
2018-12-09T05:21:49.662Z,7.60
2018-12-09T05:22:55.701Z,7.53
2018-12-09T05:24:01.332Z,7.57
2018-12-09T05:25:07.639Z,7.68
2018-12-09T05:26:13.452Z,7.70
2018-12-09T05:27:19.060Z,7.67
2018-12-09T05:28:24.693Z,7.65
2018-12-09T05:29:30.384Z,7.69
2018-12-09T05:30:36.048Z,7.75
2018-12-09T05:31:41.707Z,7.74
2018-12-09T05:32:48.288Z,7.62
2018-12-09T05:33:54.480Z,7.61
2018-12-09T05:35:00.102Z,7.66
2018-12-09T05:36:06.224Z,7.49
2018-12-09T05:37:11.984Z,7.46
2018-12-09T05:38:18.014Z,7.60
2018-12-09T05:39:24.281Z,7.71
2018-12-09T05:40:30.439Z,7.68
2018-12-09T05:41:36.108Z,7.61
2018-12-09T05:42:42.595Z,7.59
2018-12-09T05:43:48.816Z,7.50
2018-12-09T05:44:54.451Z,7.57
2018-12-09T05:46:00.052Z,7.49
2018-12-09T05:47:06.128Z,7.59
2018-12-09T05:48:11.834Z,7.52
2018-12-09T05:49:17.988Z,7.41
2018-12-09T05:50:23.589Z,7.47
2018-12-09T05:51:28.812Z,7.49
2018-12-09T05:52:34.889Z,7.49
2018-12-09T05:53:40.528Z,7.58
2018-12-09T05:54:46.149Z,7.45
2018-12-09T05:55:51.733Z,7.47
2018-12-09T05:56:57.344Z,7.55
2018-12-09T05:58:02.956Z,7.52
2018-12-09T05:59:08.600Z,7.47
2018-12-09T06:00:13.876Z,7.50
2018-12-09T06:01:19.453Z,7.46
2018-12-09T06:02:36.387Z,7.35
2018-12-09T06:03:42.086Z,7.40
2018-12-09T06:04:47.717Z,7.40
2018-12-09T06:05:53.351Z,7.47
2018-12-09T06:06:59.096Z,7.55
2018-12-09T06:08:04.651Z,7.53
2018-12-09T06:09:10.251Z,7.45
2018-12-09T06:10:15.578Z,7.39
2018-12-09T06:11:21.211Z,7.38
2018-12-09T06:12:26.853Z,7.39
2018-12-09T06:13:32.488Z,7.45
2018-12-09T06:14:38.180Z,7.33
2018-12-09T06:15:43.760Z,7.33
2018-12-09T06:16:49.376Z,7.42
2018-12-09T06:17:55.003Z,7.50
2018-12-09T06:19:00.618Z,7.45
2018-12-09T06:20:05.507Z,7.57
2018-12-09T06:21:11.120Z,7.55
2018-12-09T06:22:16.726Z,7.50
2018-12-09T06:23:22.300Z,7.55
2018-12-09T06:24:27.925Z,7.53
2018-12-09T06:25:33.572Z,7.52
2018-12-09T06:26:39.160Z,7.50
2018-12-09T06:27:44.770Z,7.52
2018-12-09T06:28:50.420Z,7.56
2018-12-09T06:29:56.036Z,7.51
2018-12-09T06:31:01.681Z,7.38
2018-12-09T06:32:07.266Z,7.39
2018-12-09T06:33:12.903Z,7.38
2018-12-09T06:34:18.552Z,7.42
2018-12-09T06:35:24.199Z,7.44
2018-12-09T06:36:29.884Z,7.26
2018-12-09T06:37:35.183Z,7.20
2018-12-09T06:38:40.840Z,7.28
2018-12-09T06:39:46.442Z,7.40
2018-12-09T06:40:52.024Z,7.33
2018-12-09T06:41:57.619Z,7.32
2018-12-09T06:43:03.187Z,7.39
2018-12-09T06:44:08.843Z,7.18
2018-12-09T06:45:13.767Z,7.19
2018-12-09T06:46:19.413Z,7.12
2018-12-09T06:47:25.051Z,7.11
2018-12-09T06:48:30.688Z,7.17
2018-12-09T06:49:36.301Z,7.19
2018-12-09T06:50:41.900Z,7.25
2018-12-09T06:51:47.466Z,7.25
2018-12-09T06:52:53.085Z,7.30
2018-12-09T06:53:58.739Z,7.35
2018-12-09T06:55:03.637Z,7.34
2018-12-09T06:56:09.293Z,7.35
2018-12-09T06:57:14.950Z,7.35
2018-12-09T06:58:20.570Z,7.41
2018-12-09T06:59:26.176Z,7.33
2018-12-09T07:00:31.791Z,7.31
2018-12-09T07:01:37.437Z,7.17
2018-12-09T07:02:43.055Z,7.14
2018-12-09T07:03:49.233Z,7.19
2018-12-09T07:04:54.821Z,7.15
2018-12-09T07:06:00.464Z,7.17
2018-12-09T07:07:06.063Z,7.19
2018-12-09T07:08:11.693Z,7.15
2018-12-09T07:09:17.305Z,7.28
2018-12-09T07:10:22.999Z,7.27
2018-12-09T07:11:28.641Z,7.29
2018-12-09T07:12:34.252Z,7.18
2018-12-09T07:13:39.832Z,7.26
2018-12-09T07:14:45.712Z,7.21
2018-12-09T07:15:51.453Z,7.19
2018-12-09T07:16:57.656Z,7.27
2018-12-09T07:18:04.513Z,7.25
2018-12-09T07:19:12.549Z,7.22
2018-12-09T07:20:18.686Z,7.24
2018-12-09T07:21:25.574Z,7.20
2018-12-09T07:22:32.295Z,7.21
2018-12-09T07:23:39.013Z,7.19
2018-12-09T07:24:45.930Z,7.09
2018-12-09T07:25:52.568Z,7.09
2018-12-09T07:26:59.291Z,7.20
2018-12-09T07:28:05.901Z,7.20
2018-12-09T07:29:13.120Z,7.30
2018-12-09T07:30:19.911Z,7.38
2018-12-09T07:31:27.536Z,7.27
2018-12-09T07:32:34.717Z,7.35
2018-12-09T07:33:41.512Z,7.40
2018-12-09T07:34:48.859Z,7.28
2018-12-09T07:35:56.405Z,7.34
2018-12-09T07:37:03.655Z,7.45
2018-12-09T07:38:10.255Z,7.39
2018-12-09T07:39:17.180Z,7.43
2018-12-09T07:40:23.959Z,7.45
2018-12-09T07:41:30.742Z,7.47
2018-12-09T07:42:37.449Z,7.49
2018-12-09T07:43:44.714Z,7.48
2018-12-09T07:44:52.642Z,7.56
2018-12-09T07:45:59.140Z,7.46
2018-12-09T07:47:05.714Z,7.48
2018-12-09T07:48:12.465Z,7.56
2018-12-09T07:49:19.249Z,7.56
2018-12-09T07:50:26.732Z,7.51
2018-12-09T07:51:33.568Z,7.59
2018-12-09T07:52:40.367Z,7.63
2018-12-09T07:53:48.252Z,7.52
2018-12-09T07:54:54.821Z,7.51
2018-12-09T07:56:01.288Z,7.59
2018-12-09T07:57:07.809Z,7.59
2018-12-09T07:58:14.448Z,7.78
2018-12-09T07:59:21.201Z,7.73
2018-12-09T08:00:28.247Z,7.74
2018-12-09T08:01:35.224Z,7.79
2018-12-09T08:02:41.870Z,7.86
2018-12-09T08:03:48.991Z,7.82
2018-12-09T08:04:56.250Z,7.82
2018-12-09T08:06:04.040Z,7.92
2018-12-09T08:07:11.321Z,7.89
2018-12-09T08:08:17.963Z,7.92
2018-12-09T08:09:25.720Z,7.82
2018-12-09T08:10:32.865Z,7.79
2018-12-09T08:11:39.627Z,7.81
2018-12-09T08:12:46.646Z,7.76
2018-12-09T08:13:53.381Z,7.85
2018-12-09T08:15:00.524Z,7.89
2018-12-09T08:16:07.455Z,7.83
2018-12-09T08:17:14.253Z,7.82
2018-12-09T08:18:21.639Z,7.92
2018-12-09T08:19:28.442Z,7.95
2018-12-09T08:20:35.111Z,7.95
2018-12-09T08:21:41.768Z,7.97
2018-12-09T08:22:49.479Z,7.87
2018-12-09T08:23:56.120Z,7.85
2018-12-09T08:25:02.880Z,7.84
2018-12-09T08:26:09.205Z,8.00
2018-12-09T08:27:15.491Z,7.90
2018-12-09T08:28:22.260Z,7.89
2018-12-09T08:29:29.093Z,7.86
2018-12-09T08:30:36.221Z,7.85
2018-12-09T08:31:43.053Z,7.94
2018-12-09T08:32:49.625Z,7.98
2018-12-09T08:33:55.744Z,8.04
2018-12-09T08:35:01.979Z,7.91
2018-12-09T08:36:07.784Z,8.00
2018-12-09T08:37:14.245Z,7.93
2018-12-09T08:38:20.896Z,7.96
2018-12-09T08:39:27.847Z,8.00
2018-12-09T08:40:33.793Z,7.97
2018-12-09T08:41:40.105Z,8.01
2018-12-09T08:42:48.086Z,7.99
2018-12-09T08:43:54.208Z,8.04
2018-12-09T08:45:01.423Z,8.00
2018-12-09T08:46:07.532Z,8.00
2018-12-09T08:47:13.104Z,8.08
2018-12-09T08:48:18.672Z,8.10
2018-12-09T08:49:24.268Z,8.01
2018-12-09T08:50:29.888Z,8.03
2018-12-09T08:51:35.478Z,8.05
2018-12-09T08:52:41.055Z,8.04
2018-12-09T08:53:46.668Z,8.08
2018-12-09T08:54:52.317Z,8.19
2018-12-09T08:55:57.943Z,8.13
2018-12-09T08:57:03.559Z,8.17
2018-12-09T08:58:09.207Z,8.14
2018-12-09T08:59:14.840Z,8.14
2018-12-09T09:00:20.490Z,8.14
2018-12-09T09:01:26.138Z,8.04
2018-12-09T09:02:31.791Z,8.11
2018-12-09T09:03:37.452Z,8.03
2018-12-09T09:04:43.093Z,8.04
2018-12-09T09:05:48.716Z,8.13
2018-12-09T09:06:54.049Z,8.18
2018-12-09T09:07:59.722Z,8.15
2018-12-09T09:09:04.630Z,8.20
2018-12-09T09:10:10.396Z,8.23
2018-12-09T09:11:16.012Z,8.17
2018-12-09T09:12:21.597Z,8.25
2018-12-09T09:13:27.197Z,8.26
2018-12-09T09:14:32.800Z,8.29
2018-12-09T09:15:38.411Z,8.30
2018-12-09T09:16:44.001Z,8.31
2018-12-09T09:17:49.620Z,8.31
2018-12-09T09:18:55.241Z,8.40
2018-12-09T09:20:00.864Z,8.45
2018-12-09T09:21:05.766Z,8.41
2018-12-09T09:22:11.407Z,8.39
2018-12-09T09:23:17.038Z,8.37
2018-12-09T09:24:22.657Z,8.47
2018-12-09T09:25:29.656Z,8.50
2018-12-09T09:26:35.332Z,8.41
2018-12-09T09:27:40.949Z,8.39
2018-12-09T09:28:46.573Z,8.35
2018-12-09T09:29:52.241Z,8.49
2018-12-09T09:30:57.856Z,8.55
2018-12-09T09:32:03.126Z,8.64
2018-12-09T09:33:08.732Z,8.61
2018-12-09T09:34:14.382Z,8.66
2018-12-09T09:35:20.049Z,8.60
2018-12-09T09:36:25.342Z,8.61
2018-12-09T09:37:30.974Z,8.56
2018-12-09T09:38:36.584Z,8.63
2018-12-09T09:39:42.279Z,8.57
2018-12-09T09:40:47.952Z,8.68
2018-12-09T09:41:53.533Z,8.70
2018-12-09T09:42:59.152Z,8.66
2018-12-09T09:44:04.747Z,8.66
2018-12-09T09:45:10.382Z,8.69
2018-12-09T09:46:16.007Z,8.55
2018-12-09T09:47:21.613Z,8.61
2018-12-09T09:48:27.256Z,8.60
2018-12-09T09:49:32.888Z,8.63
2018-12-09T09:50:38.580Z,8.66
2018-12-09T09:51:44.181Z,8.73
2018-12-09T09:52:49.821Z,8.69
2018-12-09T09:53:55.465Z,8.70
2018-12-09T09:55:01.063Z,8.66
2018-12-09T09:56:06.710Z,8.68
2018-12-09T09:57:12.318Z,8.76
2018-12-09T09:58:18.011Z,8.80
2018-12-09T09:59:23.607Z,8.75
2018-12-09T10:00:29.201Z,8.72
2018-12-09T10:01:34.771Z,8.72
2018-12-09T10:02:40.409Z,8.70
2018-12-09T10:03:46.044Z,8.65
2018-12-09T10:04:51.628Z,8.70
2018-12-09T10:05:57.266Z,8.67
2018-12-09T10:07:02.875Z,8.67
2018-12-09T10:08:08.529Z,8.71
2018-12-09T10:09:14.132Z,8.69
2018-12-09T10:10:19.874Z,8.65
2018-12-09T10:11:25.582Z,8.63
2018-12-09T10:12:31.240Z,8.57
2018-12-09T10:13:36.928Z,8.61
2018-12-09T10:14:42.517Z,8.69
2018-12-09T10:15:48.185Z,8.75
2018-12-09T10:16:53.814Z,8.69
2018-12-09T10:17:59.455Z,8.68
2018-12-09T10:19:04.707Z,8.64
2018-12-09T10:20:10.341Z,8.70
2018-12-09T10:21:16.011Z,8.59
2018-12-09T10:22:21.624Z,8.51
2018-12-09T10:23:27.232Z,8.54
2018-12-09T10:24:32.844Z,8.55
2018-12-09T10:25:38.488Z,8.59
2018-12-09T10:26:44.141Z,8.54
2018-12-09T10:27:49.742Z,8.48
2018-12-09T10:28:55.316Z,8.47
2018-12-09T10:30:00.934Z,8.44
2018-12-09T10:31:06.592Z,8.49
2018-12-09T10:32:12.226Z,8.53
2018-12-09T10:33:17.479Z,8.46
2018-12-09T10:34:23.121Z,8.59
2018-12-09T10:35:28.735Z,8.61
2018-12-09T10:36:34.367Z,8.64
2018-12-09T10:37:40.016Z,8.61
2018-12-09T10:38:45.597Z,8.59
2018-12-09T10:39:51.234Z,8.64
2018-12-09T10:40:56.898Z,8.55
2018-12-09T10:42:02.508Z,8.60
2018-12-09T10:43:08.085Z,8.60
2018-12-09T10:44:13.682Z,8.59
2018-12-09T10:45:19.294Z,8.55
2018-12-09T10:46:24.934Z,8.64
2018-12-09T10:47:30.540Z,8.64
2018-12-09T10:48:36.175Z,8.61
2018-12-09T10:49:41.788Z,8.65
2018-12-09T10:50:47.436Z,8.58
2018-12-09T10:51:53.049Z,8.73
2018-12-09T10:52:58.652Z,8.62
2018-12-09T10:54:04.249Z,8.58
2018-12-09T10:55:10.431Z,8.66
2018-12-09T10:56:16.623Z,8.63
2018-12-09T10:57:22.254Z,8.62
2018-12-09T10:58:27.863Z,8.72
2018-12-09T10:59:33.435Z,8.64
2018-12-09T11:00:44.442Z,8.65
2018-12-09T11:01:52.674Z,8.60
2018-12-09T11:02:58.337Z,8.69
2018-12-09T11:04:03.464Z,8.68
2018-12-09T11:05:09.109Z,8.81
2018-12-09T11:06:14.512Z,8.71
2018-12-09T11:07:20.092Z,8.70
2018-12-09T11:08:25.704Z,8.72
2018-12-09T11:09:31.318Z,8.66
2018-12-09T11:10:36.949Z,8.72
2018-12-09T11:11:42.632Z,8.77
2018-12-09T11:12:48.228Z,8.87
2018-12-09T11:13:58.097Z,8.93
2018-12-09T11:14:59.613Z,8.95
2018-12-09T11:16:05.398Z,8.86
2018-12-09T11:17:11.699Z,8.68
2018-12-09T11:18:16.967Z,8.66
2018-12-09T11:19:22.634Z,8.62
2018-12-09T11:20:28.294Z,8.62
2018-12-09T11:21:33.942Z,8.52
2018-12-09T11:22:39.513Z,8.52
2018-12-09T11:23:45.120Z,8.61
2018-12-09T11:24:50.749Z,8.60
2018-12-09T11:25:56.369Z,8.63
2018-12-09T11:27:01.978Z,8.61
2018-12-09T11:28:07.554Z,8.63
2018-12-09T11:29:13.172Z,8.65
2018-12-09T11:30:18.779Z,8.63
2018-12-09T11:31:24.446Z,8.61
2018-12-09T11:32:30.095Z,8.75
2018-12-09T11:33:35.692Z,8.76
2018-12-09T11:34:41.300Z,8.74
2018-12-09T11:35:46.927Z,8.72
2018-12-09T11:36:52.657Z,8.56
2018-12-09T11:37:58.214Z,8.46
2018-12-09T11:39:03.233Z,8.49
2018-12-09T11:40:08.893Z,8.54
2018-12-09T11:41:14.499Z,8.65
2018-12-09T11:42:20.160Z,8.66
2018-12-09T11:43:25.783Z,8.61
2018-12-09T11:44:31.166Z,8.70
2018-12-09T11:45:36.764Z,8.63
2018-12-09T11:46:42.371Z,8.67
2018-12-09T11:47:47.778Z,8.75
2018-12-09T11:48:53.363Z,8.69
2018-12-09T11:49:59.072Z,8.51
2018-12-09T11:51:04.030Z,8.54
2018-12-09T11:52:09.699Z,8.48
2018-12-09T11:53:15.299Z,8.62
2018-12-09T11:54:20.903Z,8.59
2018-12-09T11:55:26.179Z,8.53
2018-12-09T11:56:31.856Z,8.56
2018-12-09T11:57:37.518Z,8.44
2018-12-09T11:58:43.136Z,8.50
2018-12-09T11:59:51.357Z,8.38
2018-12-09T12:00:57.098Z,8.34
2018-12-09T12:02:02.859Z,8.35
2018-12-09T12:03:08.534Z,8.23
2018-12-09T12:04:13.881Z,8.12
2018-12-09T12:05:19.505Z,8.17
2018-12-09T12:06:25.094Z,8.30
2018-12-09T12:07:30.760Z,7.99
2018-12-09T12:08:36.471Z,7.83
2018-12-09T12:09:42.152Z,7.74
2018-12-09T12:10:47.764Z,7.79
2018-12-09T12:11:53.355Z,7.78
2018-12-09T12:12:58.973Z,7.74
2018-12-09T12:14:04.286Z,7.66
2018-12-09T12:15:09.589Z,7.71
2018-12-09T12:16:15.243Z,7.80
2018-12-09T12:17:20.938Z,7.83
2018-12-09T12:18:26.548Z,7.79
2018-12-09T12:19:32.140Z,7.77
2018-12-09T12:20:37.748Z,7.52
2018-12-09T12:21:43.374Z,7.56
2018-12-09T12:22:48.994Z,7.74
2018-12-09T12:23:54.655Z,7.64
2018-12-09T12:25:00.275Z,7.49
2018-12-09T12:26:05.637Z,7.54
2018-12-09T12:27:11.510Z,7.55
2018-12-09T12:28:17.118Z,7.47
2018-12-09T12:29:22.729Z,7.47
2018-12-09T12:30:28.361Z,7.60
2018-12-09T12:31:33.968Z,7.60
2018-12-09T12:32:39.223Z,7.47
2018-12-09T12:33:44.840Z,7.56
2018-12-09T12:34:50.526Z,7.71
2018-12-09T12:35:56.181Z,7.80
2018-12-09T12:37:01.818Z,7.79
2018-12-09T12:38:07.417Z,7.79
2018-12-09T12:39:13.067Z,7.83
2018-12-09T12:40:18.739Z,7.76
2018-12-09T12:41:24.381Z,7.79
2018-12-09T12:42:30.117Z,7.79
2018-12-09T12:43:35.280Z,7.85
2018-12-09T12:44:40.923Z,8.03
2018-12-09T12:45:46.501Z,8.15
2018-12-09T12:46:52.176Z,8.24
2018-12-09T12:47:57.842Z,8.16
2018-12-09T12:49:03.119Z,8.14
2018-12-09T12:50:08.725Z,8.09
2018-12-09T12:51:14.390Z,8.19
2018-12-09T12:52:20.072Z,8.14
2018-12-09T12:53:25.333Z,8.27
2018-12-09T12:54:30.947Z,8.30
2018-12-09T12:55:36.524Z,8.39
2018-12-09T12:56:42.240Z,8.41
2018-12-09T12:57:47.840Z,8.31
2018-12-09T12:58:53.119Z,8.30
2018-12-09T12:59:58.749Z,8.48
2018-12-09T13:01:03.728Z,8.50
2018-12-09T13:02:09.351Z,8.37
2018-12-09T13:03:14.944Z,8.36
2018-12-09T13:04:20.172Z,8.38
2018-12-09T13:05:25.783Z,8.46
2018-12-09T13:06:31.252Z,8.53
2018-12-09T13:07:36.971Z,8.61
2018-12-09T13:08:42.642Z,8.60
2018-12-09T13:09:48.268Z,8.51
2018-12-09T13:10:53.887Z,8.50
2018-12-09T13:11:59.550Z,8.49
2018-12-09T13:13:05.963Z,8.47
2018-12-09T13:14:11.612Z,8.39
2018-12-09T13:15:17.236Z,8.31
2018-12-09T13:16:22.862Z,8.33
2018-12-09T13:17:28.491Z,8.43
2018-12-09T13:18:34.101Z,8.37
2018-12-09T13:19:39.726Z,8.40
2018-12-09T13:20:45.348Z,8.36
2018-12-09T13:21:51.040Z,8.28
2018-12-09T13:22:56.696Z,8.40
2018-12-09T13:24:02.326Z,8.33
2018-12-09T13:25:07.677Z,8.31
2018-12-09T13:26:12.974Z,8.33
2018-12-09T13:27:18.580Z,8.31
2018-12-09T13:28:24.747Z,8.34
2018-12-09T13:29:30.644Z,8.25
2018-12-09T13:30:35.904Z,8.26
2018-12-09T13:31:41.520Z,8.21
2018-12-09T13:32:46.842Z,8.29
2018-12-09T13:33:52.121Z,8.18
2018-12-09T13:34:57.724Z,8.25
2018-12-09T13:36:03.312Z,8.29
2018-12-09T13:37:08.985Z,8.22
2018-12-09T13:38:13.940Z,8.33
2018-12-09T13:39:19.576Z,8.41
2018-12-09T13:40:25.178Z,8.38
2018-12-09T13:41:30.794Z,8.37
2018-12-09T13:42:36.472Z,8.23
2018-12-09T13:43:42.198Z,8.33
2018-12-09T13:44:48.746Z,8.31
2018-12-09T13:45:54.330Z,8.24
2018-12-09T13:46:59.927Z,8.18
2018-12-09T13:48:04.950Z,8.27
2018-12-09T13:49:10.618Z,8.35
2018-12-09T13:50:16.246Z,8.35
2018-12-09T13:51:21.948Z,8.35
2018-12-09T13:52:27.607Z,8.36
2018-12-09T13:53:33.226Z,8.31
2018-12-09T13:54:38.850Z,8.41
2018-12-09T13:55:44.452Z,8.42
2018-12-09T13:56:50.025Z,8.28
2018-12-09T13:57:55.764Z,8.19
2018-12-09T13:59:01.397Z,8.42
2018-12-09T14:00:06.284Z,8.52
2018-12-09T14:01:11.929Z,8.31
2018-12-09T14:02:17.599Z,8.37
2018-12-09T14:03:23.211Z,8.38
2018-12-09T14:04:28.807Z,8.28
2018-12-09T14:05:34.442Z,8.39
2018-12-09T14:06:40.051Z,8.49
2018-12-09T14:07:45.803Z,8.33
2018-12-09T14:08:51.432Z,8.33
2018-12-09T14:09:57.049Z,8.29
2018-12-09T14:11:02.643Z,8.35
2018-12-09T14:12:08.274Z,8.34
2018-12-09T14:13:13.920Z,8.33
2018-12-09T14:14:19.651Z,8.34
2018-12-09T14:15:25.292Z,8.38
2018-12-09T14:16:30.958Z,8.40
2018-12-09T14:17:36.668Z,8.45
2018-12-09T14:18:42.196Z,8.41
2018-12-09T14:19:47.813Z,8.44
2018-12-09T14:20:53.441Z,8.33
2018-12-09T14:21:59.044Z,8.53
2018-12-09T14:23:04.717Z,8.59
2018-12-09T14:24:10.333Z,8.51
2018-12-09T14:25:15.976Z,8.39
2018-12-09T14:26:21.619Z,8.41
2018-12-09T14:27:27.467Z,8.56
2018-12-09T14:28:33.139Z,8.47
2018-12-09T14:29:38.776Z,8.37
2018-12-09T14:30:44.358Z,8.34
2018-12-09T14:31:49.806Z,8.43
2018-12-09T14:32:55.505Z,8.43
2018-12-09T14:34:01.088Z,8.39
2018-12-09T14:35:06.124Z,8.50
2018-12-09T14:36:11.803Z,8.45
2018-12-09T14:37:17.439Z,8.47
2018-12-09T14:38:23.082Z,8.51